首页
METAR-TAF:

METAR-TAF

机场 :

Mackenzie, 不列颠哥伦比亚, 加拿大

纬度: 55-18N, 经度: 123-08W, 海拔: 695米

当前天气观测

该预报发布于20分钟前的13:00 UTC
风速3节,风向东转东南,在之间变化
温度 10°C
湿度 82%
气压 1015 hPa
能見度: 14.5公里
天空无云

METAR: CYZY 211300Z AUTO 12003KT 100V170 9SM CLR 10/07 A2996 RMK SLP150

时间: 06:20 (13:20 UTC)

预报

该预报发布于6小时和42分钟前的06:38 UTC
预报有效从21日的 07点(UTC)到 21日的 09点(UTC)
风速5节,风向南转南东
能見度: 10公里
少量云层高于14000英尺
散云层高于24000英尺

TAF: CYZY 210638Z 2107/2109 16005KT P6SM FEW140 SCT240 RMK FCST BASED ON AUTO OBS. NXT FCST WILL BE ISSUED AT 211445Z

超过4000个机场的气象观测和天气预报(METAR&TAF报告)。

可查询的气象台以黄色和红色小点在地图上表示。

将鼠标移到小点上方,可查看气象台名称。

然后点击查看天气观测和预报。

如需切换地图:点击带黑十字的绿色按钮放大地图;点击带横线的绿色按钮缩小地图;或者点击绿色箭头查看邻近地区的地图。


METAR-TAF: